sensor_id;sensor_type;location;lat;lon;timestamp;temperature;humidity
4813;DHT22;2420;51.202;8.698;2023-04-03T00:02:06;2.60;1.00
4813;DHT22;2420;51.202;8.698;2023-04-03T00:04:32;2.60;1.00
4813;DHT22;2420;51.202;8.698;2023-04-03T00:06:57;2.30;1.00
4813;DHT22;2420;51.202;8.698;2023-04-03T00:09:23;2.20;1.00
4813;DHT22;2420;51.202;8.698;2023-04-03T00:11:49;2.40;1.00
4813;DHT22;2420;51.202;8.698;2023-04-03T00:14:15;2.30;1.00
4813;DHT22;2420;51.202;8.698;2023-04-03T00:16:41;2.50;1.00
4813;DHT22;2420;51.202;8.698;2023-04-03T00:19:06;2.60;1.00
4813;DHT22;2420;51.202;8.698;2023-04-03T00:21:32;2.30;1.00
4813;DHT22;2420;51.202;8.698;2023-04-03T00:23:58;2.40;1.00
4813;DHT22;2420;51.202;8.698;2023-04-03T00:26:23;2.30;1.00
4813;DHT22;2420;51.202;8.698;2023-04-03T00:28:49;2.40;1.00
4813;DHT22;2420;51.202;8.698;2023-04-03T00:31:15;2.40;1.00
4813;DHT22;2420;51.202;8.698;2023-04-03T00:33:41;2.50;1.00
4813;DHT22;2420;51.202;8.698;2023-04-03T00:36:09;2.20;1.00
4813;DHT22;2420;51.202;8.698;2023-04-03T00:38:36;2.10;1.00
4813;DHT22;2420;51.202;8.698;2023-04-03T00:41:02;2.20;1.00
4813;DHT22;2420;51.202;8.698;2023-04-03T00:43:27;2.10;1.00
4813;DHT22;2420;51.202;8.698;2023-04-03T00:45:55;2.00;1.00
4813;DHT22;2420;51.202;8.698;2023-04-03T00:48:25;2.10;1.00
4813;DHT22;2420;51.202;8.698;2023-04-03T00:50:52;2.00;1.00
4813;DHT22;2420;51.202;8.698;2023-04-03T00:53:22;2.20;1.00
4813;DHT22;2420;51.202;8.698;2023-04-03T00:55:49;2.20;1.00
4813;DHT22;2420;51.202;8.698;2023-04-03T00:58:18;1.80;1.00
4813;DHT22;2420;51.202;8.698;2023-04-03T01:00:50;1.90;1.00
4813;DHT22;2420;51.202;8.698;2023-04-03T01:03:18;1.70;1.00
4813;DHT22;2420;51.202;8.698;2023-04-03T01:05:45;2.00;1.00
4813;DHT22;2420;51.202;8.698;2023-04-03T01:08:11;1.80;1.00
4813;DHT22;2420;51.202;8.698;2023-04-03T01:10:39;1.80;1.00
4813;DHT22;2420;51.202;8.698;2023-04-03T01:13:18;1.70;1.00
4813;DHT22;2420;51.202;8.698;2023-04-03T01:15:44;1.80;1.00
4813;DHT22;2420;51.202;8.698;2023-04-03T01:18:10;1.90;1.00
4813;DHT22;2420;51.202;8.698;2023-04-03T01:24:24;1.80;1.00
4813;DHT22;2420;51.202;8.698;2023-04-03T01:26:16;1.50;1.00
4813;DHT22;2420;51.202;8.698;2023-04-03T01:28:41;1.40;1.00
4813;DHT22;2420;51.202;8.698;2023-04-03T01:31:24;1.60;1.00
4813;DHT22;2420;51.202;8.698;2023-04-03T01:33:50;1.60;1.00
4813;DHT22;2420;51.202;8.698;2023-04-03T01:36:22;1.30;1.00
4813;DHT22;2420;51.202;8.698;2023-04-03T01:38:50;1.50;1.00
4813;DHT22;2420;51.202;8.698;2023-04-03T01:41:16;1.60;1.00
4813;DHT22;2420;51.202;8.698;2023-04-03T01:43:41;1.20;1.00
4813;DHT22;2420;51.202;8.698;2023-04-03T01:46:07;1.40;1.00
4813;DHT22;2420;51.202;8.698;2023-04-03T01:48:33;1.20;1.00
4813;DHT22;2420;51.202;8.698;2023-04-03T01:50:59;1.10;1.00
4813;DHT22;2420;51.202;8.698;2023-04-03T01:53:24;1.40;1.00
4813;DHT22;2420;51.202;8.698;2023-04-03T01:55:50;1.30;1.00
4813;DHT22;2420;51.202;8.698;2023-04-03T01:58:16;1.30;1.00
4813;DHT22;2420;51.202;8.698;2023-04-03T02:00:42;1.10;1.00
4813;DHT22;2420;51.202;8.698;2023-04-03T02:03:07;1.30;1.00
4813;DHT22;2420;51.202;8.698;2023-04-03T02:05:33;1.10;1.00
4813;DHT22;2420;51.202;8.698;2023-04-03T02:07:59;1.20;1.00
4813;DHT22;2420;51.202;8.698;2023-04-03T02:10:24;0.90;1.00
4813;DHT22;2420;51.202;8.698;2023-04-03T02:12:50;1.00;1.00
4813;DHT22;2420;51.202;8.698;2023-04-03T02:15:16;1.00;1.00
4813;DHT22;2420;51.202;8.698;2023-04-03T02:17:42;1.20;1.00
4813;DHT22;2420;51.202;8.698;2023-04-03T02:20:08;0.90;1.00
4813;DHT22;2420;51.202;8.698;2023-04-03T02:22:34;0.90;1.00
4813;DHT22;2420;51.202;8.698;2023-04-03T02:25:00;0.70;1.00
4813;DHT22;2420;51.202;8.698;2023-04-03T02:27:26;1.00;1.00
4813;DHT22;2420;51.202;8.698;2023-04-03T02:29:52;0.70;1.00
4813;DHT22;2420;51.202;8.698;2023-04-03T02:32:17;0.80;1.00
4813;DHT22;2420;51.202;8.698;2023-04-03T02:34:43;0.90;1.00
4813;DHT22;2420;51.202;8.698;2023-04-03T02:37:08;0.80;1.00
4813;DHT22;2420;51.202;8.698;2023-04-03T02:39:34;0.80;1.00
4813;DHT22;2420;51.202;8.698;2023-04-03T02:42:00;0.70;1.00
4813;DHT22;2420;51.202;8.698;2023-04-03T02:44:26;0.80;1.00
4813;DHT22;2420;51.202;8.698;2023-04-03T02:46:51;0.80;1.00
4813;DHT22;2420;51.202;8.698;2023-04-03T02:49:17;0.50;1.00
4813;DHT22;2420;51.202;8.698;2023-04-03T02:51:43;0.70;1.00
4813;DHT22;2420;51.202;8.698;2023-04-03T02:54:08;0.60;1.00
4813;DHT22;2420;51.202;8.698;2023-04-03T02:56:34;0.40;1.00
4813;DHT22;2420;51.202;8.698;2023-04-03T02:58:59;0.70;1.00
4813;DHT22;2420;51.202;8.698;2023-04-03T03:01:25;0.50;1.00
4813;DHT22;2420;51.202;8.698;2023-04-03T03:03:53;0.60;1.00
4813;DHT22;2420;51.202;8.698;2023-04-03T03:06:19;0.50;1.00
4813;DHT22;2420;51.202;8.698;2023-04-03T03:08:45;0.50;1.00
4813;DHT22;2420;51.202;8.698;2023-04-03T03:11:11;0.60;1.00
4813;DHT22;2420;51.202;8.698;2023-04-03T03:13:37;0.40;1.00
4813;DHT22;2420;51.202;8.698;2023-04-03T03:16:03;0.50;1.00
4813;DHT22;2420;51.202;8.698;2023-04-03T03:18:29;0.50;1.00
4813;DHT22;2420;51.202;8.698;2023-04-03T03:20:59;0.50;1.00
4813;DHT22;2420;51.202;8.698;2023-04-03T03:23:26;0.50;1.00
4813;DHT22;2420;51.202;8.698;2023-04-03T03:25:56;0.40;1.00
4813;DHT22;2420;51.202;8.698;2023-04-03T03:28:23;0.60;1.00
4813;DHT22;2420;51.202;8.698;2023-04-03T03:30:48;0.50;1.00
4813;DHT22;2420;51.202;8.698;2023-04-03T03:33:16;0.40;1.00
4813;DHT22;2420;51.202;8.698;2023-04-03T03:35:43;0.50;1.00
4813;DHT22;2420;51.202;8.698;2023-04-03T03:38:09;0.50;1.00
4813;DHT22;2420;51.202;8.698;2023-04-03T03:40:34;0.30;1.00
4813;DHT22;2420;51.202;8.698;2023-04-03T03:43:00;0.30;1.00
4813;DHT22;2420;51.202;8.698;2023-04-03T03:45:26;0.30;1.00
4813;DHT22;2420;51.202;8.698;2023-04-03T03:47:52;0.10;1.00
4813;DHT22;2420;51.202;8.698;2023-04-03T03:50:17;0.20;1.00
4813;DHT22;2420;51.202;8.698;2023-04-03T03:52:43;0.10;1.00
4813;DHT22;2420;51.202;8.698;2023-04-03T03:55:09;0.30;1.00
4813;DHT22;2420;51.202;8.698;2023-04-03T03:57:34;0.00;1.00
4813;DHT22;2420;51.202;8.698;2023-04-03T04:00:00;0.20;1.00
4813;DHT22;2420;51.202;8.698;2023-04-03T04:02:26;0.00;1.00
4813;DHT22;2420;51.202;8.698;2023-04-03T04:04:51;0.10;1.00
4813;DHT22;2420;51.202;8.698;2023-04-03T04:07:17;0.20;1.00
4813;DHT22;2420;51.202;8.698;2023-04-03T04:09:42;0.10;1.00
4813;DHT22;2420;51.202;8.698;2023-04-03T04:12:08;0.20;1.00
4813;DHT22;2420;51.202;8.698;2023-04-03T04:14:33;0.20;1.00
4813;DHT22;2420;51.202;8.698;2023-04-03T04:16:59;0.00;1.00
4813;DHT22;2420;51.202;8.698;2023-04-03T04:19:25;0.10;1.00
4813;DHT22;2420;51.202;8.698;2023-04-03T04:21:50;-0.10;1.00
4813;DHT22;2420;51.202;8.698;2023-04-03T04:24:16;0.00;1.00
4813;DHT22;2420;51.202;8.698;2023-04-03T04:26:41;-0.10;1.00
4813;DHT22;2420;51.202;8.698;2023-04-03T04:29:09;-0.10;1.00
4813;DHT22;2420;51.202;8.698;2023-04-03T04:31:35;-0.20;1.00
4813;DHT22;2420;51.202;8.698;2023-04-03T04:34:01;-0.10;1.00
4813;DHT22;2420;51.202;8.698;2023-04-03T04:36:26;0.10;1.00
4813;DHT22;2420;51.202;8.698;2023-04-03T04:38:52;0.00;1.00
4813;DHT22;2420;51.202;8.698;2023-04-03T04:41:21;0.10;1.00
4813;DHT22;2420;51.202;8.698;2023-04-03T04:43:48;0.00;1.00
4813;DHT22;2420;51.202;8.698;2023-04-03T04:46:14;-0.20;1.00
4813;DHT22;2420;51.202;8.698;2023-04-03T04:48:40;-0.10;1.00
4813;DHT22;2420;51.202;8.698;2023-04-03T04:51:06;-0.30;1.00
4813;DHT22;2420;51.202;8.698;2023-04-03T04:53:32;-0.20;1.00
4813;DHT22;2420;51.202;8.698;2023-04-03T04:55:58;-0.30;1.00
4813;DHT22;2420;51.202;8.698;2023-04-03T04:58:24;-0.10;1.00
4813;DHT22;2420;51.202;8.698;2023-04-03T05:00:49;-0.40;1.00
4813;DHT22;2420;51.202;8.698;2023-04-03T05:03:15;-0.50;1.00
4813;DHT22;2420;51.202;8.698;2023-04-03T05:05:41;-0.10;1.00
4813;DHT22;2420;51.202;8.698;2023-04-03T05:08:06;-0.40;1.00
4813;DHT22;2420;51.202;8.698;2023-04-03T05:10:33;-0.40;1.00
4813;DHT22;2420;51.202;8.698;2023-04-03T05:12:59;-0.40;1.00
4813;DHT22;2420;51.202;8.698;2023-04-03T05:15:25;-0.40;1.00
4813;DHT22;2420;51.202;8.698;2023-04-03T05:17:50;-0.20;1.00
4813;DHT22;2420;51.202;8.698;2023-04-03T05:20:16;-0.20;1.00
4813;DHT22;2420;51.202;8.698;2023-04-03T05:22:42;-0.50;1.00
4813;DHT22;2420;51.202;8.698;2023-04-03T05:25:08;-0.40;1.00
4813;DHT22;2420;51.202;8.698;2023-04-03T05:27:34;-0.50;1.00
4813;DHT22;2420;51.202;8.698;2023-04-03T05:29:59;-0.40;1.00
4813;DHT22;2420;51.202;8.698;2023-04-03T05:32:25;-0.30;1.00
4813;DHT22;2420;51.202;8.698;2023-04-03T05:34:53;-0.50;1.00
4813;DHT22;2420;51.202;8.698;2023-04-03T05:37:19;-0.40;1.00
4813;DHT22;2420;51.202;8.698;2023-04-03T05:39:45;-0.50;1.00
4813;DHT22;2420;51.202;8.698;2023-04-03T05:42:11;-0.50;1.00
4813;DHT22;2420;51.202;8.698;2023-04-03T05:44:40;-0.70;1.00
4813;DHT22;2420;51.202;8.698;2023-04-03T05:47:06;-0.60;1.00
4813;DHT22;2420;51.202;8.698;2023-04-03T05:49:32;-0.30;1.00
4813;DHT22;2420;51.202;8.698;2023-04-03T05:51:57;-0.30;1.00
4813;DHT22;2420;51.202;8.698;2023-04-03T05:54:25;-0.30;1.00
4813;DHT22;2420;51.202;8.698;2023-04-03T05:56:52;-0.30;1.00
4813;DHT22;2420;51.202;8.698;2023-04-03T05:59:18;-0.40;1.00
4813;DHT22;2420;51.202;8.698;2023-04-03T06:01:44;-0.40;1.00
4813;DHT22;2420;51.202;8.698;2023-04-03T06:04:10;-0.40;1.00
4813;DHT22;2420;51.202;8.698;2023-04-03T06:06:53;-0.30;1.00
4813;DHT22;2420;51.202;8.698;2023-04-03T06:09:22;-0.50;1.00
4813;DHT22;2420;51.202;8.698;2023-04-03T06:11:48;-0.40;1.00
4813;DHT22;2420;51.202;8.698;2023-04-03T06:14:13;-0.20;1.00
4813;DHT22;2420;51.202;8.698;2023-04-03T06:16:39;-0.10;1.00
4813;DHT22;2420;51.202;8.698;2023-04-03T06:19:07;-0.20;1.00
4813;DHT22;2420;51.202;8.698;2023-04-03T06:21:32;-0.40;1.00
4813;DHT22;2420;51.202;8.698;2023-04-03T06:23:58;-0.30;1.00
4813;DHT22;2420;51.202;8.698;2023-04-03T06:26:24;-0.40;1.00
4813;DHT22;2420;51.202;8.698;2023-04-03T06:28:49;-0.50;1.00
4813;DHT22;2420;51.202;8.698;2023-04-03T06:31:15;-0.40;1.00
4813;DHT22;2420;51.202;8.698;2023-04-03T06:33:40;-0.20;1.00
4813;DHT22;2420;51.202;8.698;2023-04-03T06:36:06;-0.10;1.00
4813;DHT22;2420;51.202;8.698;2023-04-03T06:38:34;0.00;1.00
4813;DHT22;2420;51.202;8.698;2023-04-03T06:41:00;0.00;1.00
4813;DHT22;2420;51.202;8.698;2023-04-03T06:43:26;-0.10;1.00
4813;DHT22;2420;51.202;8.698;2023-04-03T06:45:52;0.10;1.00
4813;DHT22;2420;51.202;8.698;2023-04-03T06:48:17;0.10;1.00
4813;DHT22;2420;51.202;8.698;2023-04-03T06:50:43;0.10;1.00
4813;DHT22;2420;51.202;8.698;2023-04-03T06:53:09;0.20;1.00
4813;DHT22;2420;51.202;8.698;2023-04-03T06:55:35;0.10;1.00
4813;DHT22;2420;51.202;8.698;2023-04-03T06:58:01;0.10;1.00
4813;DHT22;2420;51.202;8.698;2023-04-03T07:00:27;0.10;1.00
4813;DHT22;2420;51.202;8.698;2023-04-03T07:02:53;0.20;1.00
4813;DHT22;2420;51.202;8.698;2023-04-03T07:05:18;0.30;1.00
4813;DHT22;2420;51.202;8.698;2023-04-03T07:07:44;0.40;1.00
4813;DHT22;2420;51.202;8.698;2023-04-03T07:10:10;0.20;1.00
4813;DHT22;2420;51.202;8.698;2023-04-03T07:12:36;-0.10;1.00
4813;DHT22;2420;51.202;8.698;2023-04-03T07:15:01;0.00;1.00
4813;DHT22;2420;51.202;8.698;2023-04-03T07:17:28;0.10;1.00
4813;DHT22;2420;51.202;8.698;2023-04-03T07:19:53;0.30;1.00
4813;DHT22;2420;51.202;8.698;2023-04-03T07:22:19;0.30;1.00
4813;DHT22;2420;51.202;8.698;2023-04-03T07:24:45;0.30;1.00
4813;DHT22;2420;51.202;8.698;2023-04-03T07:27:11;0.40;1.00
4813;DHT22;2420;51.202;8.698;2023-04-03T07:29:37;0.90;1.00
4813;DHT22;2420;51.202;8.698;2023-04-03T07:32:04;0.80;1.00
4813;DHT22;2420;51.202;8.698;2023-04-03T07:34:31;1.40;1.00
4813;DHT22;2420;51.202;8.698;2023-04-03T07:36:58;1.30;1.00
4813;DHT22;2420;51.202;8.698;2023-04-03T07:39:23;1.30;1.00
4813;DHT22;2420;51.202;8.698;2023-04-03T07:41:50;1.20;1.00
4813;DHT22;2420;51.202;8.698;2023-04-03T07:44:16;1.60;1.00
4813;DHT22;2420;51.202;8.698;2023-04-03T07:46:42;1.40;1.00
4813;DHT22;2420;51.202;8.698;2023-04-03T07:49:08;1.40;1.00
4813;DHT22;2420;51.202;8.698;2023-04-03T07:51:34;1.30;1.00
4813;DHT22;2420;51.202;8.698;2023-04-03T07:53:59;1.20;1.00
4813;DHT22;2420;51.202;8.698;2023-04-03T07:56:25;1.30;1.00
4813;DHT22;2420;51.202;8.698;2023-04-03T07:58:51;1.20;1.00
4813;DHT22;2420;51.202;8.698;2023-04-03T08:01:16;1.40;1.00
4813;DHT22;2420;51.202;8.698;2023-04-03T08:03:42;1.30;1.00
4813;DHT22;2420;51.202;8.698;2023-04-03T08:06:08;1.00;1.00
4813;DHT22;2420;51.202;8.698;2023-04-03T08:08:34;1.50;1.00
4813;DHT22;2420;51.202;8.698;2023-04-03T08:11:01;1.30;1.00
4813;DHT22;2420;51.202;8.698;2023-04-03T08:13:28;1.30;1.00
4813;DHT22;2420;51.202;8.698;2023-04-03T08:15:54;1.50;1.00
4813;DHT22;2420;51.202;8.698;2023-04-03T08:18:23;1.60;1.00
4813;DHT22;2420;51.202;8.698;2023-04-03T08:20:50;1.70;1.00
4813;DHT22;2420;51.202;8.698;2023-04-03T08:23:17;1.90;1.00
4813;DHT22;2420;51.202;8.698;2023-04-03T08:25:43;1.90;1.00
4813;DHT22;2420;51.202;8.698;2023-04-03T08:28:10;2.10;1.00
4813;DHT22;2420;51.202;8.698;2023-04-03T08:30:39;1.80;1.00
4813;DHT22;2420;51.202;8.698;2023-04-03T08:33:05;2.00;1.00
4813;DHT22;2420;51.202;8.698;2023-04-03T08:35:31;2.30;1.00
4813;DHT22;2420;51.202;8.698;2023-04-03T08:37:57;2.50;1.00
4813;DHT22;2420;51.202;8.698;2023-04-03T08:40:23;2.40;1.00
4813;DHT22;2420;51.202;8.698;2023-04-03T08:43:14;2.50;1.00
4813;DHT22;2420;51.202;8.698;2023-04-03T08:45:52;2.20;1.00
4813;DHT22;2420;51.202;8.698;2023-04-03T08:48:26;2.50;1.00
4813;DHT22;2420;51.202;8.698;2023-04-03T08:51:17;2.60;1.00
4813;DHT22;2420;51.202;8.698;2023-04-03T08:53:51;2.60;1.00
4813;DHT22;2420;51.202;8.698;2023-04-03T08:56:19;2.60;1.00
4813;DHT22;2420;51.202;8.698;2023-04-03T09:01:27;2.90;1.00
4813;DHT22;2420;51.202;8.698;2023-04-03T09:03:55;2.60;1.00
4813;DHT22;2420;51.202;8.698;2023-04-03T09:06:26;2.50;1.00
4813;DHT22;2420;51.202;8.698;2023-04-03T09:09:14;2.30;1.00
4813;DHT22;2420;51.202;8.698;2023-04-03T09:22:57;3.30;1.00
4813;DHT22;2420;51.202;8.698;2023-04-03T09:25:27;2.80;1.00
4813;DHT22;2420;51.202;8.698;2023-04-03T09:27:53;2.80;1.00
4813;DHT22;2420;51.202;8.698;2023-04-03T09:30:21;2.60;1.00
4813;DHT22;2420;51.202;8.698;2023-04-03T09:32:49;2.60;1.00
4813;DHT22;2420;51.202;8.698;2023-04-03T09:35:34;2.60;1.00
4813;DHT22;2420;51.202;8.698;2023-04-03T09:40:37;2.90;1.00
4813;DHT22;2420;51.202;8.698;2023-04-03T09:43:20;2.90;1.00
4813;DHT22;2420;51.202;8.698;2023-04-03T09:45:47;3.30;1.00
4813;DHT22;2420;51.202;8.698;2023-04-03T09:50:54;3.30;1.00
4813;DHT22;2420;51.202;8.698;2023-04-03T09:53:37;3.30;1.00
4813;DHT22;2420;51.202;8.698;2023-04-03T09:58:42;3.50;1.00
4813;DHT22;2420;51.202;8.698;2023-04-03T10:01:23;3.60;1.00
4813;DHT22;2420;51.202;8.698;2023-04-03T10:06:33;3.60;1.00
4813;DHT22;2420;51.202;8.698;2023-04-03T10:12:10;3.30;1.00
4813;DHT22;2420;51.202;8.698;2023-04-03T10:17:37;3.20;1.00
4813;DHT22;2420;51.202;8.698;2023-04-03T10:23:24;3.50;1.00
4813;DHT22;2420;51.202;8.698;2023-04-03T10:26:28;3.50;1.00
4813;DHT22;2420;51.202;8.698;2023-04-03T10:31:25;3.80;1.00
4813;DHT22;2420;51.202;8.698;2023-04-03T10:34:06;4.20;1.00
4813;DHT22;2420;51.202;8.698;2023-04-03T10:36:46;4.30;1.00
4813;DHT22;2420;51.202;8.698;2023-04-03T10:39:24;3.70;1.00
4813;DHT22;2420;51.202;8.698;2023-04-03T10:41:59;4.20;1.00
4813;DHT22;2420;51.202;8.698;2023-04-03T10:47:24;4.50;1.00
4813;DHT22;2420;51.202;8.698;2023-04-03T10:52:35;4.80;1.00
4813;DHT22;2420;51.202;8.698;2023-04-03T10:55:32;4.70;1.00
4813;DHT22;2420;51.202;8.698;2023-04-03T10:57:59;4.40;1.00
4813;DHT22;2420;51.202;8.698;2023-04-03T11:00:42;4.40;1.00
4813;DHT22;2420;51.202;8.698;2023-04-03T11:03:25;5.00;1.00
4813;DHT22;2420;51.202;8.698;2023-04-03T11:05:53;5.10;1.00
4813;DHT22;2420;51.202;8.698;2023-04-03T11:11:08;5.40;1.00
4813;DHT22;2420;51.202;8.698;2023-04-03T11:13:51;4.80;1.00
4813;DHT22;2420;51.202;8.698;2023-04-03T11:16:23;4.70;1.00
4813;DHT22;2420;51.202;8.698;2023-04-03T11:19:04;4.60;1.00
4813;DHT22;2420;51.202;8.698;2023-04-03T11:21:48;4.90;1.00
4813;DHT22;2420;51.202;8.698;2023-04-03T11:24:25;4.70;1.00
4813;DHT22;2420;51.202;8.698;2023-04-03T11:26:53;4.40;1.00
4813;DHT22;2420;51.202;8.698;2023-04-03T11:29:26;4.50;1.00
4813;DHT22;2420;51.202;8.698;2023-04-03T11:32:09;4.60;1.00
4813;DHT22;2420;51.202;8.698;2023-04-03T11:39:57;5.60;1.00
4813;DHT22;2420;51.202;8.698;2023-04-03T11:42:39;5.50;1.00
4813;DHT22;2420;51.202;8.698;2023-04-03T11:45:36;5.20;1.00
4813;DHT22;2420;51.202;8.698;2023-04-03T11:53:25;5.10;1.00
4813;DHT22;2420;51.202;8.698;2023-04-03T11:58:17;5.10;1.00
4813;DHT22;2420;51.202;8.698;2023-04-03T12:08:44;4.80;1.00
4813;DHT22;2420;51.202;8.698;2023-04-03T12:26:51;5.60;1.00
4813;DHT22;2420;51.202;8.698;2023-04-03T12:29:37;5.60;1.00
4813;DHT22;2420;51.202;8.698;2023-04-03T12:32:26;5.40;1.00
4813;DHT22;2420;51.202;8.698;2023-04-03T12:41:15;5.20;1.00
4813;DHT22;2420;51.202;8.698;2023-04-03T12:46:53;5.50;1.00
4813;DHT22;2420;51.202;8.698;2023-04-03T12:51:54;5.20;1.00
4813;DHT22;2420;51.202;8.698;2023-04-03T12:54:30;4.90;1.00
4813;DHT22;2420;51.202;8.698;2023-04-03T12:59:42;5.10;1.00
4813;DHT22;2420;51.202;8.698;2023-04-03T13:04:47;5.00;1.00
4813;DHT22;2420;51.202;8.698;2023-04-03T13:07:24;5.20;1.00
4813;DHT22;2420;51.202;8.698;2023-04-03T13:12:47;5.20;1.00
4813;DHT22;2420;51.202;8.698;2023-04-03T13:15:22;5.20;1.00
4813;DHT22;2420;51.202;8.698;2023-04-03T13:17:50;5.30;1.00
4813;DHT22;2420;51.202;8.698;2023-04-03T13:20:21;5.40;1.00
4813;DHT22;2420;51.202;8.698;2023-04-03T13:22:52;5.50;1.00
4813;DHT22;2420;51.202;8.698;2023-04-03T13:25:22;5.70;1.00
4813;DHT22;2420;51.202;8.698;2023-04-03T13:27:49;5.50;1.00
4813;DHT22;2420;51.202;8.698;2023-04-03T13:30:36;5.40;1.00
4813;DHT22;2420;51.202;8.698;2023-04-03T13:33:17;5.30;1.00
4813;DHT22;2420;51.202;8.698;2023-04-03T13:35:43;5.30;1.00
4813;DHT22;2420;51.202;8.698;2023-04-03T13:40:53;5.60;1.00
4813;DHT22;2420;51.202;8.698;2023-04-03T13:43:25;5.30;1.00
4813;DHT22;2420;51.202;8.698;2023-04-03T13:48:47;6.00;1.00
4813;DHT22;2420;51.202;8.698;2023-04-03T13:53:47;5.80;1.00
4813;DHT22;2420;51.202;8.698;2023-04-03T13:56:21;5.90;1.00
4813;DHT22;2420;51.202;8.698;2023-04-03T14:01:46;6.20;1.00
4813;DHT22;2420;51.202;8.698;2023-04-03T14:04:22;6.00;1.00
4813;DHT22;2420;51.202;8.698;2023-04-03T14:06:48;6.00;1.00
4813;DHT22;2420;51.202;8.698;2023-04-03T14:09:18;6.20;1.00
4813;DHT22;2420;51.202;8.698;2023-04-03T14:11:44;6.30;1.00
4813;DHT22;2420;51.202;8.698;2023-04-03T14:14:23;6.50;1.00
4813;DHT22;2420;51.202;8.698;2023-04-03T14:16:55;6.60;1.00
4813;DHT22;2420;51.202;8.698;2023-04-03T14:19:33;6.60;1.00
4813;DHT22;2420;51.202;8.698;2023-04-03T14:22:05;6.30;1.00
4813;DHT22;2420;51.202;8.698;2023-04-03T14:24:31;6.20;1.00
4813;DHT22;2420;51.202;8.698;2023-04-03T14:26:57;6.40;1.00
4813;DHT22;2420;51.202;8.698;2023-04-03T14:29:23;6.30;1.00
4813;DHT22;2420;51.202;8.698;2023-04-03T14:31:49;6.60;1.00
4813;DHT22;2420;51.202;8.698;2023-04-03T14:34:15;6.30;1.00
4813;DHT22;2420;51.202;8.698;2023-04-03T14:36:42;6.50;1.00
4813;DHT22;2420;51.202;8.698;2023-04-03T14:39:11;6.50;1.00
4813;DHT22;2420;51.202;8.698;2023-04-03T14:41:37;6.50;1.00
4813;DHT22;2420;51.202;8.698;2023-04-03T14:44:02;6.20;1.00
4813;DHT22;2420;51.202;8.698;2023-04-03T14:46:33;6.40;1.00
4813;DHT22;2420;51.202;8.698;2023-04-03T14:49:00;6.40;1.00
4813;DHT22;2420;51.202;8.698;2023-04-03T14:51:26;6.30;1.00
4813;DHT22;2420;51.202;8.698;2023-04-03T14:53:52;6.40;1.00
4813;DHT22;2420;51.202;8.698;2023-04-03T14:56:23;6.00;1.00
4813;DHT22;2420;51.202;8.698;2023-04-03T14:58:56;6.00;1.00
4813;DHT22;2420;51.202;8.698;2023-04-03T15:01:22;6.00;1.00
4813;DHT22;2420;51.202;8.698;2023-04-03T15:03:49;6.30;1.00
4813;DHT22;2420;51.202;8.698;2023-04-03T15:06:15;6.20;1.00
4813;DHT22;2420;51.202;8.698;2023-04-03T15:08:42;6.20;1.00
4813;DHT22;2420;51.202;8.698;2023-04-03T15:11:09;6.00;1.00
4813;DHT22;2420;51.202;8.698;2023-04-03T15:13:37;6.10;1.00
4813;DHT22;2420;51.202;8.698;2023-04-03T15:16:03;6.10;1.00
4813;DHT22;2420;51.202;8.698;2023-04-03T15:18:32;5.90;1.00
4813;DHT22;2420;51.202;8.698;2023-04-03T15:21:00;5.90;1.00
4813;DHT22;2420;51.202;8.698;2023-04-03T15:23:26;5.70;1.00
4813;DHT22;2420;51.202;8.698;2023-04-03T15:25:53;5.90;1.00
4813;DHT22;2420;51.202;8.698;2023-04-03T15:28:39;5.70;1.00
4813;DHT22;2420;51.202;8.698;2023-04-03T15:31:05;5.70;1.00
4813;DHT22;2420;51.202;8.698;2023-04-03T15:33:31;5.80;1.00
4813;DHT22;2420;51.202;8.698;2023-04-03T15:35:57;5.60;1.00
4813;DHT22;2420;51.202;8.698;2023-04-03T15:38:23;5.70;1.00
4813;DHT22;2420;51.202;8.698;2023-04-03T15:40:48;5.50;1.00
4813;DHT22;2420;51.202;8.698;2023-04-03T15:43:14;5.50;1.00
4813;DHT22;2420;51.202;8.698;2023-04-03T15:45:41;5.50;1.00
4813;DHT22;2420;51.202;8.698;2023-04-03T15:48:08;5.60;1.00
4813;DHT22;2420;51.202;8.698;2023-04-03T15:50:34;5.90;1.00
4813;DHT22;2420;51.202;8.698;2023-04-03T15:53:01;5.80;1.00
4813;DHT22;2420;51.202;8.698;2023-04-03T15:55:30;5.70;1.00
4813;DHT22;2420;51.202;8.698;2023-04-03T15:57:56;6.00;1.00
4813;DHT22;2420;51.202;8.698;2023-04-03T16:00:22;5.70;1.00
4813;DHT22;2420;51.202;8.698;2023-04-03T16:02:52;5.40;1.00
4813;DHT22;2420;51.202;8.698;2023-04-03T16:05:20;5.30;1.00
4813;DHT22;2420;51.202;8.698;2023-04-03T16:07:46;5.00;1.00
4813;DHT22;2420;51.202;8.698;2023-04-03T16:10:13;5.10;1.00
4813;DHT22;2420;51.202;8.698;2023-04-03T16:12:39;4.90;1.00
4813;DHT22;2420;51.202;8.698;2023-04-03T16:15:05;5.00;1.00
4813;DHT22;2420;51.202;8.698;2023-04-03T16:17:33;4.80;1.00
4813;DHT22;2420;51.202;8.698;2023-04-03T16:19:59;5.00;1.00
4813;DHT22;2420;51.202;8.698;2023-04-03T16:22:26;5.00;1.00
4813;DHT22;2420;51.202;8.698;2023-04-03T16:24:53;4.80;1.00
4813;DHT22;2420;51.202;8.698;2023-04-03T16:27:19;4.70;1.00
4813;DHT22;2420;51.202;8.698;2023-04-03T16:29:44;4.60;1.00
4813;DHT22;2420;51.202;8.698;2023-04-03T16:32:11;4.50;1.00
4813;DHT22;2420;51.202;8.698;2023-04-03T16:34:38;4.50;1.00
4813;DHT22;2420;51.202;8.698;2023-04-03T16:37:05;4.70;1.00
4813;DHT22;2420;51.202;8.698;2023-04-03T16:39:31;4.60;1.00
4813;DHT22;2420;51.202;8.698;2023-04-03T16:41:57;4.70;1.00
4813;DHT22;2420;51.202;8.698;2023-04-03T16:44:22;4.60;1.00
4813;DHT22;2420;51.202;8.698;2023-04-03T16:46:48;4.80;1.00
4813;DHT22;2420;51.202;8.698;2023-04-03T16:49:13;5.00;1.00
4813;DHT22;2420;51.202;8.698;2023-04-03T16:51:39;4.90;1.00
4813;DHT22;2420;51.202;8.698;2023-04-03T16:54:05;4.80;1.00
4813;DHT22;2420;51.202;8.698;2023-04-03T16:56:31;4.60;1.00
4813;DHT22;2420;51.202;8.698;2023-04-03T16:58:57;4.30;1.00
4813;DHT22;2420;51.202;8.698;2023-04-03T17:01:22;4.20;1.00
4813;DHT22;2420;51.202;8.698;2023-04-03T17:03:48;4.10;1.00
4813;DHT22;2420;51.202;8.698;2023-04-03T17:06:22;4.00;1.00
4813;DHT22;2420;51.202;8.698;2023-04-03T17:08:49;3.90;1.00
4813;DHT22;2420;51.202;8.698;2023-04-03T17:11:15;3.90;1.00
4813;DHT22;2420;51.202;8.698;2023-04-03T17:13:41;4.10;1.00
4813;DHT22;2420;51.202;8.698;2023-04-03T17:16:09;4.10;1.00
4813;DHT22;2420;51.202;8.698;2023-04-03T17:18:36;4.00;1.00
4813;DHT22;2420;51.202;8.698;2023-04-03T17:21:02;3.90;1.00
4813;DHT22;2420;51.202;8.698;2023-04-03T17:23:28;4.00;1.00
4813;DHT22;2420;51.202;8.698;2023-04-03T17:25:54;3.80;1.00
4813;DHT22;2420;51.202;8.698;2023-04-03T17:28:21;3.70;1.00
4813;DHT22;2420;51.202;8.698;2023-04-03T17:30:53;3.90;1.00
4813;DHT22;2420;51.202;8.698;2023-04-03T17:33:18;3.80;1.00
4813;DHT22;2420;51.202;8.698;2023-04-03T17:35:44;3.70;1.00
4813;DHT22;2420;51.202;8.698;2023-04-03T17:38:09;3.80;1.00
4813;DHT22;2420;51.202;8.698;2023-04-03T17:40:35;3.60;1.00
4813;DHT22;2420;51.202;8.698;2023-04-03T17:43:00;3.70;1.00
4813;DHT22;2420;51.202;8.698;2023-04-03T17:45:26;3.50;1.00
4813;DHT22;2420;51.202;8.698;2023-04-03T17:47:51;3.40;1.00
4813;DHT22;2420;51.202;8.698;2023-04-03T17:50:18;3.40;1.00
4813;DHT22;2420;51.202;8.698;2023-04-03T17:52:44;3.50;1.00
4813;DHT22;2420;51.202;8.698;2023-04-03T17:55:10;3.30;1.00
4813;DHT22;2420;51.202;8.698;2023-04-03T17:57:37;3.40;1.00
4813;DHT22;2420;51.202;8.698;2023-04-03T18:00:03;3.40;1.00
4813;DHT22;2420;51.202;8.698;2023-04-03T18:02:29;3.40;1.00
4813;DHT22;2420;51.202;8.698;2023-04-03T18:04:56;3.40;1.00
4813;DHT22;2420;51.202;8.698;2023-04-03T18:07:22;3.30;1.00
4813;DHT22;2420;51.202;8.698;2023-04-03T18:09:48;3.30;1.00
4813;DHT22;2420;51.202;8.698;2023-04-03T18:12:15;3.30;1.00
4813;DHT22;2420;51.202;8.698;2023-04-03T18:14:40;3.30;1.00
4813;DHT22;2420;51.202;8.698;2023-04-03T18:17:07;3.10;1.00
4813;DHT22;2420;51.202;8.698;2023-04-03T18:19:32;3.00;1.00
4813;DHT22;2420;51.202;8.698;2023-04-03T18:22:04;2.80;1.00
4813;DHT22;2420;51.202;8.698;2023-04-03T18:24:31;2.70;1.00
4813;DHT22;2420;51.202;8.698;2023-04-03T18:27:09;2.70;1.00
4813;DHT22;2420;51.202;8.698;2023-04-03T18:29:36;2.70;1.00
4813;DHT22;2420;51.202;8.698;2023-04-03T18:32:03;2.60;1.00
4813;DHT22;2420;51.202;8.698;2023-04-03T18:34:31;2.70;1.00